Urbandale, Iowa
Current Conditions -  °F | °C
As of 7:54 PM on Wednesday 22 Oct 2014 (Local Time) from KDSM Reporting Station
Broken Clouds Broken Clouds  
Wind Chill: 16°   Ceiling: 25000
Heat Index: 16°   Visibility: 10mi
Dew Point:   Wind: 13mph
Humidity: 60%   Direction: 150°SSE
Pressure: 30.12"   Gusts: NA
Location:  41.63°N, 93.71°W
Report Text: KDSM 230054Z 15011KT 10SM SCT065 BKN250 16/08 A3012 RMK AO2 SLP202 T01560078
Loading
Personal Weather Stations






























Interactive Weather Map
Tropical Storm Tracking
New forecast layout! Learn more

10-Day Weather Forecast

Advertisements
Track Severe Weather on mobile